Terminal Aerodrome Forecast
Issued by NWS

Home | Current Version | Previous Version | Text Only | Print | Product List | Glossary On
Versions: 1 2 3 4 5 6 7 8 9 10 11 12 13 14 15 16
000
FTUS44 KLZK 210500 RRA
TAFLIT
TAF
KLIT 210541Z 2106/2206 16006KT P6SM SKC
     FM211500 22010G20KT P6SM SCT040
     FM220100 18006KT P6SM FEW250=

USA.gov is the U.S. government's official web portal to all federal, state and local government web resources and services.